Flight Track Log - Related Links

Times and Time Zones

All times are in EDT time to prevent confusion due to time zone crossing. See the EJA929 flight status page for this flight to view local times or setup timezone preferences in your user account.

Time Position Orientation Groundspeed Altitude Reporting Facility
EDT Latitude Longitude Course Direction KTS MPH feet Rate Location/Type
Mon 09:16:04 AM 40.1333 -74.5667 265° West 263 303 6,000  Level Philadelphia TRACON
Mon 09:16:46 AM 40.1333 -74.6167 270° West 265 305 6,000  Level Philadelphia TRACON
Mon 09:17:00 AM 40.0371 -75.2091 237° Southwest  Level FlightAware Approximate
Mon 09:17:46 AM 40.1500 -74.7167 282° West 267 307 6,000  Level Philadelphia TRACON
Mon 09:18:00 AM 39.9941 -75.3587 249° West  Level FlightAware Approximate
Mon 09:18:30 AM 40.1100 -74.7850 233° Southwest 274 315 6,000  Level New York Center
Mon 09:19:00 AM 39.9540 -75.5088 249° West  Level FlightAware Approximate
Mon 09:19:30 AM 40.0661 -74.8447 226° Southwest 254 292 8,000  Level New York Center
Mon 09:20:00 AM 39.9167 -75.6595 270° West  Level FlightAware Approximate
Mon 09:20:30 AM 40.0358 -74.9353 246° West 264 304 10,000  Level New York Center
Mon 09:21:00 AM 39.9082 -75.8188 265° West  Level FlightAware Approximate
Mon 09:21:32 AM 40.0197 -75.0372 258° West 348 400 10,000  Level New York Center
Mon 09:22:30 AM 39.9978 -75.1794 259° West 395 455 10,000 51 Level New York Center
Mon 09:23:30 AM 39.9806 -75.3058 260° West 372 428 10,100 639 Climbing New York Center
Mon 09:24:32 AM 39.9758 -75.4247 267° West 367 422 11,300 1,388 Climbing New York Center
Mon 09:25:31 AM 39.9703 -75.5650 267° West 367 422 12,900 1,650 Climbing New York Center
Mon 09:26:32 AM 39.9653 -75.6839 267° West 362 417 14,600 1,736 Climbing New York Center
Mon 09:27:32 AM 39.9617 -75.8219 268° West 357 411 16,400 1,587 Climbing New York Center
Mon 09:28:33 AM 39.9603 -75.9492 269° West 352 405 17,800 1,424 Climbing New York Center
Mon 09:29:30 AM 39.9528 -76.0678 265° West 352 405 19,200 1,590 Climbing New York Center
Mon 09:30:30 AM 39.9489 -76.2000 268° West 367 422 20,900 1,579 Climbing New York Center
Mon 09:32:02 AM 39.9422 -76.3978 268° West 373 429 23,200 1,500 Climbing Washington Center
Mon 09:33:02 AM 39.9267 -76.5358 262° West 373 429 24,700 1,600 Climbing Washington Center
Mon 09:34:02 AM 39.8714 -76.6594 240° Southwest 359 413 26,400 1,450 Climbing Washington Center
Mon 09:35:02 AM 39.8225 -76.7828 243° Southwest 372 428 27,600 1,322 Climbing Washington Center
Mon 09:36:00 AM 39.7711 -76.9089 242° Southwest 383 441 29,000 1,462 Climbing Washington Center
Mon 09:37:01 AM 39.7217 -77.0322 243° Southwest 388 447 30,500 1,488 Climbing Washington Center
Mon 09:38:01 AM 39.6681 -77.1631 242° Southwest 393 452 32,000 744 Climbing Washington Center
Mon 09:39:02 AM 39.6142 -77.2967 242° Southwest 399 459 32,000  Level Washington Center
Mon 09:40:00 AM 39.5558 -77.4406 242° Southwest 429 494 32,000  Level Washington Center
Mon 09:41:00 AM 39.4931 -77.5897 241° Southwest 453 521 32,000 450 Level Washington Center
Mon 09:42:00 AM 39.4342 -77.7331 242° Southwest 461 531 32,900 942 Climbing Washington Center
Mon 09:43:01 AM 39.3753 -77.8764 242° Southwest 461 531 33,900 1,033 Climbing Washington Center
Mon 09:44:02 AM 39.3161 -78.0219 242° Southwest 461 531 35,000 1,091 Climbing Washington Center
Mon 09:45:02 AM 39.2611 -78.1650 244° Southwest 455 524 36,100 1,119 Climbing Washington Center
Mon 09:46:00 AM 39.2017 -78.3103 242° Southwest 455 524 37,200 1,109 Climbing Washington Center
Mon 09:47:01 AM 39.1464 -78.4472 243° Southwest 450 518 38,300 1,033 Climbing Washington Center
Mon 09:48:02 AM 39.0889 -78.5842 242° Southwest 445 512 39,300 857 Climbing Washington Center
Mon 09:49:00 AM 39.0353 -78.7208 243° Southwest 438 504 40,000 353 Climbing Washington Center
Mon 09:50:01 AM 38.9794 -78.8628 243° Southwest 443 510 40,000  Level Washington Center
Mon 09:51:02 AM 38.9192 -79.0069 242° Southwest 448 516 40,000  Level Washington Center
Mon 09:52:02 AM 38.8608 -79.1508 243° Southwest 448 516 40,000  Level Washington Center
Mon 09:53:00 AM 38.8206 -79.3061 252° West 459 528 40,000  Level Washington Center
Mon 09:54:00 AM 38.7906 -79.4669 257° West 459 528 40,000  Level Washington Center
Mon 09:55:01 AM 38.7664 -79.6308 259° West 471 542 40,000  Level Washington Center
Mon 09:56:02 AM 38.7358 -79.7914 256° West 471 542 40,000  Level Washington Center
Mon 09:57:02 AM 38.7097 -79.9389 257° West 466 536 40,000  Level Washington Center
Mon 09:57:37 AM 38.6894 -80.0222 253° West 470 541 40,000  Level Indianapolis Center
Mon 09:58:39 AM 38.6592 -80.1836 257° West 468 539 40,000  Level Indianapolis Center
Mon 09:59:41 AM 38.6231 -80.3764 257° West 464 534 40,000  Level Indianapolis Center
Mon 10:00:43 AM 38.6097 -80.5394 264° West 461 531 40,000  Level Indianapolis Center
Mon 10:01:45 AM 38.6033 -80.7053 267° West 465 535 40,000  Level Indianapolis Center
Mon 10:02:47 AM 38.5958 -80.8706 267° West 466 536 40,000  Level Indianapolis Center
Mon 10:03:49 AM 38.5881 -81.0350 267° West 463 533 40,000  Level Indianapolis Center
Mon 10:04:51 AM 38.5806 -81.2008 267° West 466 536 40,000  Level Indianapolis Center
Mon 10:05:53 AM 38.5714 -81.3672 266° West 463 533 40,000  Level Indianapolis Center
Mon 10:06:55 AM 38.5625 -81.5400 266° West 474 545 40,000  Level Indianapolis Center
Mon 10:07:57 AM 38.5556 -81.7106 267° West 471 542 40,000  Level Indianapolis Center
Mon 10:08:59 AM 38.5447 -81.9117 266° West 470 541 40,000  Level Indianapolis Center
Mon 10:10:01 AM 38.5353 -82.0778 266° West 468 539 40,000  Level Indianapolis Center
Mon 10:11:03 AM 38.5256 -82.2436 266° West 468 539 40,000  Level Indianapolis Center
Mon 10:12:05 AM 38.5164 -82.4089 266° West 467 537 40,000  Level Indianapolis Center
Mon 10:13:07 AM 38.5058 -82.5767 265° West 467 537 40,000  Level Indianapolis Center
Mon 10:14:09 AM 38.4950 -82.7681 266° West 465 535 40,000  Level Indianapolis Center
Mon 10:15:11 AM 38.4842 -82.9322 265° West 465 535 40,000  Level Indianapolis Center
Mon 10:16:13 AM 38.4733 -83.0958 265° West 464 534 40,000  Level Indianapolis Center
Mon 10:17:15 AM 38.4631 -83.2581 265° West 461 531 40,000  Level Indianapolis Center
Mon 10:18:17 AM 38.4519 -83.4231 265° West 465 535 40,000  Level Indianapolis Center
Mon 10:19:19 AM 38.4408 -83.5864 265° West 463 533 40,000  Level Indianapolis Center
Mon 10:20:21 AM 38.4278 -83.7769 265° West 463 533 40,000  Level Indianapolis Center
Mon 10:21:23 AM 38.4161 -83.9389 265° West 461 531 40,000  Level Indianapolis Center
Mon 10:22:25 AM 38.4044 -84.1006 265° West 459 528 40,000  Level Indianapolis Center
Mon 10:23:27 AM 38.3922 -84.2644 265° West 462 532 40,000  Level Indianapolis Center
Mon 10:24:29 AM 38.3792 -84.4281 264° West 465 535 40,000  Level Indianapolis Center
Mon 10:25:31 AM 38.3642 -84.6186 264° West 464 534 40,000  Level Indianapolis Center
Mon 10:26:33 AM 38.3517 -84.7797 264° West 458 527 40,000  Level Indianapolis Center
Mon 10:27:35 AM 38.3394 -84.9428 265° West 461 531 40,000  Level Indianapolis Center
Mon 10:28:37 AM 38.3258 -85.1047 264° West 460 529 40,000  Level Indianapolis Center
Mon 10:29:40 AM 38.3114 -85.2767 264° West 460 529 40,000  Level Indianapolis Center
Mon 10:30:42 AM 38.2986 -85.4392 264° West 460 529 40,000  Level Indianapolis Center
Mon 10:31:44 AM 38.2847 -85.6017 264° West 461 531 40,000  Level Indianapolis Center
Mon 10:32:46 AM 38.2692 -85.7650 263° West 464 534 40,000  Level Indianapolis Center
Mon 10:33:48 AM 38.2561 -85.9294 264° West 467 537 40,000  Level Indianapolis Center
Mon 10:34:50 AM 38.2383 -86.1242 263° West 462 532 40,000  Level Indianapolis Center
Mon 10:35:52 AM 38.2236 -86.2878 264° West 463 533 40,000  Level Indianapolis Center
Mon 10:36:54 AM 38.2081 -86.4531 263° West 466 536 40,000  Level Indianapolis Center
Mon 10:37:56 AM 38.1925 -86.6167 263° West 464 534 40,000  Level Indianapolis Center
Mon 10:38:58 AM 38.1761 -86.7794 263° West 462 532 40,000  Level Indianapolis Center
Mon 10:40:00 AM 38.1594 -86.9442 263° West 463 533 40,000  Level Indianapolis Center
Mon 10:41:02 AM 38.1433 -87.1119 263° West 465 535 40,000  Level Indianapolis Center
Mon 10:42:04 AM 38.1269 -87.2778 263° West 465 535 40,000  Level Indianapolis Center
Mon 10:43:06 AM 38.1114 -87.4414 263° West 462 532 40,000  Level Indianapolis Center
Mon 10:44:08 AM 38.0942 -87.6039 262° West 463 533 40,000  Level Indianapolis Center
Mon 10:45:10 AM 38.0736 -87.7994 262° West 464 534 40,000  Level Indianapolis Center
Mon 10:46:12 AM 38.0561 -87.9650 262° West 469 540 40,000  Level Indianapolis Center
Mon 10:47:14 AM 38.0389 -88.1292 262° West 468 539 40,000  Level Indianapolis Center
Mon 10:48:16 AM 38.0203 -88.2942 262° West 469 540 40,000  Level Indianapolis Center
Mon 10:49:08 AM 38.0061 -88.4267 262° West 468 539 40,000  Level Kansas City Center
Mon 10:50:10 AM 37.9886 -88.5908 262° West 468 539 40,000  Level Kansas City Center
Mon 10:51:12 AM 37.9711 -88.7589 263° West 469 540 40,000  Level Kansas City Center
Mon 10:52:14 AM 37.9531 -88.9214 262° West 468 539 40,000  Level Kansas City Center
Mon 10:53:16 AM 37.9256 -89.1278 260° West 476 548 40,000  Level Kansas City Center
Mon 10:54:18 AM 37.9061 -89.2925 262° West 475 547 40,000  Level Kansas City Center
Mon 10:55:20 AM 37.8869 -89.4556 262° West 470 541 40,000  Level Kansas City Center
Mon 10:56:22 AM 37.8658 -89.6319 261° West 471 542 40,000  Level Kansas City Center
Mon 10:57:23 AM 37.8478 -89.7831 261° West 472 543 40,000  Level Kansas City Center
Mon 10:58:25 AM 37.8294 -89.9394 262° West 471 542 40,000  Level Kansas City Center
Mon 10:59:27 AM 37.8036 -90.1381 261° West 474 545 40,000  Level Kansas City Center
Mon 11:00:29 AM 37.7825 -90.3058 261° West 479 551 40,000  Level Kansas City Center
Mon 11:01:31 AM 37.7606 -90.4706 260° West 477 549 40,000  Level Kansas City Center
Mon 11:02:33 AM 37.7383 -90.6364 260° West 479 551 40,000  Level Kansas City Center
Mon 11:03:35 AM 37.7172 -90.8028 261° West 479 551 40,000  Level Kansas City Center
Mon 11:04:37 AM 37.6947 -90.9706 260° West 482 555 40,000  Level Kansas City Center
Mon 11:05:39 AM 37.6706 -91.1467 260° West 481 554 40,000  Level Kansas City Center
Mon 11:06:41 AM 37.6475 -91.3133 260° West 479 551 40,000  Level Kansas City Center
Mon 11:07:43 AM 37.6253 -91.4786 260° West 478 550 40,000  Level Kansas City Center
Mon 11:08:45 AM 37.5975 -91.6772 260° West 477 549 40,000  Level Kansas City Center
Mon 11:09:47 AM 37.5750 -91.8431 260° West 476 548 40,000  Level Kansas City Center
Mon 11:10:49 AM 37.5517 -92.0078 260° West 475 547 40,000  Level Kansas City Center
Mon 11:11:51 AM 37.5278 -92.1714 260° West 472 543 40,000  Level Kansas City Center
Mon 11:12:53 AM 37.5042 -92.3361 260° West 471 542 40,000  Level Kansas City Center
Mon 11:13:55 AM 37.4808 -92.5008 260° West 472 543 40,000  Level Kansas City Center
Mon 11:14:57 AM 37.4575 -92.6656 260° West 474 545 40,000  Level Kansas City Center
Mon 11:15:59 AM 37.4336 -92.8281 260° West 472 543 40,000  Level Kansas City Center
Mon 11:17:01 AM 37.4092 -92.9911 259° West 470 541 40,000  Level Kansas City Center
Mon 11:18:03 AM 37.3786 -93.1881 259° West 475 547 40,000  Level Kansas City Center
Mon 11:19:05 AM 37.3503 -93.3522 258° West 477 549 40,000  Level Kansas City Center
Mon 11:20:07 AM 37.3028 -93.5122 250° West 485 558 40,000 -290 Level Kansas City Center
Mon 11:21:09 AM 37.2769 -93.6719 259° West 474 545 39,400 -484 Descending Kansas City Center
Mon 11:22:11 AM 37.2708 -93.8375 267° West 473 544 39,000 -194 Descending Kansas City Center
Mon 11:23:13 AM 37.2653 -94.0028 268° West 472 543 39,000  Level Kansas City Center
Mon 11:24:15 AM 37.2600 -94.1742 268° West 474 545 39,000 -1,210 Level Kansas City Center
Mon 11:25:17 AM 37.2397 -94.3350 261° West 477 549 36,500 -4,113 Descending Kansas City Center
Mon 11:26:19 AM 37.1372 -94.5019 232° Southwest 499 574 30,500 -4,548 Descending Kansas City Center
Mon 11:27:21 AM 37.0503 -94.6361 231° Southwest 496 571 27,100 -3,000 Descending Kansas City Center
Mon 11:28:23 AM 36.9664 -94.7639 231° Southwest 483 556 24,300 -2,661 Descending Kansas City Center
Mon 11:29:25 AM 36.8842 -94.8897 231° Southwest 472 543 21,600 -2,565 Descending Kansas City Center
Mon 11:30:27 AM 36.8053 -95.0103 231° Southwest 460 529 19,000 -2,688 Descending Kansas City Center
Mon 11:31:01 AM 36.7522 -95.0914 231° Southwest 435 501 17,300 -2,657 Descending Kansas City Center
Mon 11:31:37 AM 36.7119 -95.1544 231° Southwest 420 483 15,900 -2,067 Descending Kansas City Center
Mon 11:32:31 AM 36.6569 -95.2336 229° Southwest 418 481 14,200 -2,328 Descending Kansas City Center
Mon 11:33:33 AM 36.5653 -95.3453 224° Southwest 391 450 11,400 -1,935 Descending Kansas City Center
Mon 11:34:35 AM 36.5008 -95.4222 224° Southwest 339 390 10,200 -1,452 Descending Kansas City Center
Mon 11:35:37 AM 36.4639 -95.5028 240° Southwest 288 331 8,400 -1,694 Descending Kansas City Center
Mon 11:36:39 AM 36.4336 -95.5892 246° West 279 321 6,700 -1,786 Descending Kansas City Center
Mon 11:37:48 AM 36.3950 -95.6997 247° West 263 303 4,500 -1,790 Descending Kansas City Center
Mon 11:38:43 AM 36.3703 -95.7708 247° West 264 304 3,000 -1,043 Descending Kansas City Center
Mon 11:39:43 AM 36.3450 -95.8489 248° West 225 259 2,500 -484 Descending Kansas City Center
Mon 11:40:47 AM 36.3019 -95.8758 207° Southwest 208 239 2,000 -496 Descending Kansas City Center
Mon 11:41:44 AM 36.2553 -95.8789 183° South 145 167 1,500 -532 Descending Kansas City Center
Mon 11:42:51 AM 36.2222 -95.8794 181° South 152 175 900 -537 Descending Kansas City Center
Mon 11:44:00 AM 36.1984 -95.8881 238° Southwest  Level Estimated
Mon 11:51:00 AM 36.1984 -95.8881 238° Southwest  Level Estimated

Login

Don't have an account? Register now (free) for customized features, flight alerts, and more!